Time;durP1;ratioP1;P1;durP2;ratioP2;P2;SDS_P1;SDS_P2;PMS_P1;PMS_P2;Temp;Humidity;BMP_temperature;BMP_pressure;BME280_temperature;BME280_humidity;BME280_pressure;Samples;Min_cycle;Max_cycle;Signal;HPM_P1;HPM_P2
2024/01/29 00:00:25;;;;;;;11.15;1.75;;;;;;;;;;5074952;28;20108;-26
2024/01/29 00:02:52;;;;;;;9.38;1.60;;;;;;;;;;5074887;28;20394;-26
2024/01/29 00:05:19;;;;;;;6.72;2.05;;;;;;;;;;5074978;28;20039;-26
2024/01/29 00:07:46;;;;;;;9.65;2.03;;;;;;;;;;5074804;28;20043;-26
2024/01/29 00:10:13;;;;;;;8.98;1.70;;;;;;;;;;5070469;28;20078;-26
2024/01/29 00:12:40;;;;;;;5.65;1.65;;;;;;;;;;5074700;28;20433;-26
2024/01/29 00:15:07;;;;;;;9.80;1.50;;;;;;;;;;5074634;28;20070;-26
2024/01/29 00:17:34;;;;;;;7.10;1.40;;;;;;;;;;5074676;28;20024;-26
2024/01/29 00:20:01;;;;;;;7.75;1.70;;;;;;;;;;5073905;28;20059;-27
2024/01/29 00:22:28;;;;;;;8.05;1.48;;;;;;;;;;5070882;28;20024;-26
2024/01/29 00:24:55;;;;;;;5.07;1.52;;;;;;;;;;5074547;28;20490;-26
2024/01/29 00:27:22;;;;;;;8.07;1.58;;;;;;;;;;5074371;28;20545;-26
2024/01/29 00:29:49;;;;;;;4.28;1.50;;;;;;;;;;5074469;28;20441;-26
2024/01/29 00:32:16;;;;;;;9.40;1.50;;;;;;;;;;5072792;28;20494;-26
2024/01/29 00:34:44;;;;;;;8.20;1.92;;;;;;;;;;5071682;28;20425;-26
2024/01/29 00:37:10;;;;;;;10.20;1.75;;;;;;;;;;5073753;28;20025;-26
2024/01/29 00:39:37;;;;;;;9.43;1.60;;;;;;;;;;5074328;28;20017;-26
2024/01/29 00:42:05;;;;;;;8.68;1.58;;;;;;;;;;5074337;28;20414;-26
2024/01/29 00:44:32;;;;;;;7.63;1.48;;;;;;;;;;5071525;28;20052;-26
2024/01/29 00:46:59;;;;;;;4.55;1.60;;;;;;;;;;5072052;28;20020;-26
2024/01/29 00:49:26;;;;;;;9.07;1.50;;;;;;;;;;5074027;28;20028;-26
2024/01/29 00:51:53;;;;;;;8.88;1.60;;;;;;;;;;5074169;28;20029;-26
2024/01/29 00:54:20;;;;;;;7.28;1.83;;;;;;;;;;5074024;28;20103;-26
2024/01/29 00:56:47;;;;;;;12.73;2.00;;;;;;;;;;5070157;28;20044;-26
2024/01/29 00:59:14;;;;;;;5.55;1.30;;;;;;;;;;5073287;28;20040;-26
2024/01/29 01:01:41;;;;;;;9.00;1.90;;;;;;;;;;5073926;28;20069;-26
2024/01/29 01:04:08;;;;;;;9.70;1.80;;;;;;;;;;5073928;28;20025;-26
2024/01/29 01:06:35;;;;;;;8.45;2.00;;;;;;;;;;5073779;28;20122;-26
2024/01/29 01:09:03;;;;;;;3.20;1.40;;;;;;;;;;5069095;28;20036;-26
2024/01/29 01:11:30;;;;;;;6.90;1.70;;;;;;;;;;5073722;28;20483;-26
2024/01/29 01:13:57;;;;;;;10.15;1.92;;;;;;;;;;5073664;28;20043;-26
2024/01/29 01:16:24;;;;;;;9.57;1.85;;;;;;;;;;5073689;28;20057;-26
2024/01/29 01:18:51;;;;;;;9.68;1.58;;;;;;;;;;5073199;28;20028;-26
2024/01/29 01:21:18;;;;;;;3.58;1.38;;;;;;;;;;5069331;28;20028;-26
2024/01/29 01:23:45;;;;;;;6.32;1.85;;;;;;;;;;5072461;28;20032;-29
2024/01/29 01:26:12;;;;;;;11.02;2.47;;;;;;;;;;5065513;28;20395;-29
2024/01/29 01:28:39;;;;;;;15.18;2.53;;;;;;;;;;5053347;28;20029;-28
2024/01/29 01:31:06;;;;;;;13.00;2.30;;;;;;;;;;5052016;28;20029;-28
2024/01/29 01:33:33;;;;;;;23.40;2.60;;;;;;;;;;5057824;28;20115;-28
2024/01/29 01:36:00;;;;;;;18.88;2.78;;;;;;;;;;5058207;28;20032;-29
2024/01/29 01:38:27;;;;;;;23.40;2.58;;;;;;;;;;5053034;28;20041;-29
2024/01/29 01:40:54;;;;;;;14.63;2.63;;;;;;;;;;5057900;28;20536;-29
2024/01/29 01:43:23;;;;;;;24.23;2.97;;;;;;;;;;5062185;28;20029;-30
2024/01/29 01:45:59;;;;;;;17.55;2.88;;;;;;;;;;5056972;28;20066;-28
2024/01/29 01:48:26;;;;;;;22.50;3.42;;;;;;;;;;5070685;28;20446;-31
2024/01/29 01:50:53;;;;;;;22.67;3.67;;;;;;;;;;5062055;28;20360;-29
2024/01/29 01:53:20;;;;;;;25.00;3.80;;;;;;;;;;5059532;28;20502;-33
2024/01/29 01:55:47;;;;;;;28.95;3.78;;;;;;;;;;5064636;28;20044;-29
2024/01/29 01:58:18;;;;;;;22.17;2.67;;;;;;;;;;5065003;28;20078;-29
2024/01/29 02:00:45;;;;;;;20.65;2.38;;;;;;;;;;5065214;28;20033;-29
2024/01/29 02:03:12;;;;;;;23.25;3.30;;;;;;;;;;5065394;28;20017;-29
2024/01/29 02:05:39;;;;;;;24.92;3.00;;;;;;;;;;5071703;28;20119;-30
2024/01/29 02:08:06;;;;;;;32.15;3.83;;;;;;;;;;5067411;28;20393;-29
2024/01/29 02:10:34;;;;;;;26.38;3.05;;;;;;;;;;5065537;28;20029;-29
2024/01/29 02:13:01;;;;;;;28.60;3.10;;;;;;;;;;5072005;28;20486;-29
2024/01/29 02:15:28;;;;;;;23.10;2.85;;;;;;;;;;5069995;28;20032;-29
2024/01/29 02:17:55;;;;;;;21.73;2.80;;;;;;;;;;5063605;28;20024;-30
2024/01/29 02:20:22;;;;;;;26.13;2.60;;;;;;;;;;5067225;28;20032;-28
2024/01/29 02:22:49;;;;;;;14.02;2.40;;;;;;;;;;5071783;28;20074;-29
2024/01/29 02:25:16;;;;;;;22.10;2.67;;;;;;;;;;5071501;28;20036;-30
2024/01/29 02:27:43;;;;;;;11.95;1.83;;;;;;;;;;5063230;28;20029;-30
2024/01/29 02:30:11;;;;;;;12.38;1.85;;;;;;;;;;5069352;28;20035;-30
2024/01/29 02:32:38;;;;;;;13.20;2.10;;;;;;;;;;5069062;28;20036;-30
2024/01/29 02:35:05;;;;;;;13.05;1.85;;;;;;;;;;5071560;28;20052;-30
2024/01/29 02:37:35;;;;;;;12.05;2.22;;;;;;;;;;5071509;28;20052;-30
2024/01/29 02:40:02;;;;;;;13.38;2.35;;;;;;;;;;5065152;28;20022;-30
2024/01/29 02:42:29;;;;;;;13.80;2.15;;;;;;;;;;5059195;28;20591;-30
2024/01/29 02:44:56;;;;;;;7.28;1.58;;;;;;;;;;5069385;28;20433;-29
2024/01/29 02:47:23;;;;;;;15.95;1.63;;;;;;;;;;5070869;28;20024;-29
2024/01/29 02:49:50;;;;;;;10.95;1.95;;;;;;;;;;5058290;28;20475;-29
2024/01/29 02:52:19;;;;;;;9.73;1.45;;;;;;;;;;5071259;28;20386;-31
2024/01/29 02:54:46;;;;;;;8.65;1.60;;;;;;;;;;5067853;28;20395;-29
2024/01/29 02:57:13;;;;;;;7.85;1.60;;;;;;;;;;5068571;28;20123;-30
2024/01/29 02:59:40;;;;;;;7.93;1.27;;;;;;;;;;5070873;28;20355;-30
2024/01/29 03:02:08;;;;;;;10.23;1.65;;;;;;;;;;5071140;28;20135;-29
2024/01/29 03:04:35;;;;;;;11.57;1.45;;;;;;;;;;5069207;28;20032;-30
2024/01/29 03:07:02;;;;;;;5.90;1.33;;;;;;;;;;5067042;28;20082;-29
2024/01/29 03:09:29;;;;;;;15.55;1.90;;;;;;;;;;5069779;28;20128;-30
2024/01/29 03:11:58;;;;;;;10.80;1.55;;;;;;;;;;5064894;28;20021;-30
2024/01/29 03:14:25;;;;;;;12.18;1.65;;;;;;;;;;5070662;28;20690;-30
2024/01/29 03:16:52;;;;;;;13.90;1.88;;;;;;;;;;5066668;28;20452;-30
2024/01/29 03:19:19;;;;;;;16.25;1.98;;;;;;;;;;5064736;28;20035;-30
2024/01/29 03:21:46;;;;;;;8.63;1.77;;;;;;;;;;5070205;28;20025;-29
2024/01/29 03:24:15;;;;;;;10.90;1.92;;;;;;;;;;5067241;28;20051;-30
2024/01/29 03:26:42;;;;;;;15.40;1.70;;;;;;;;;;5070185;28;20111;-30
2024/01/29 03:29:09;;;;;;;13.85;1.58;;;;;;;;;;5069912;28;20153;-30
2024/01/29 03:31:36;;;;;;;12.68;1.60;;;;;;;;;;5063125;28;20441;-30
2024/01/29 03:34:03;;;;;;;15.50;2.20;;;;;;;;;;5069104;28;20048;-29
2024/01/29 03:36:30;;;;;;;24.15;2.40;;;;;;;;;;5062297;28;20028;-30
2024/01/29 03:38:57;;;;;;;18.23;2.53;;;;;;;;;;5069883;28;20033;-31
2024/01/29 03:41:24;;;;;;;12.50;2.05;;;;;;;;;;5069262;28;20024;-30
2024/01/29 03:43:51;;;;;;;22.38;2.20;;;;;;;;;;5066844;28;20158;-31
2024/01/29 03:46:17;;;;;;;9.93;1.75;;;;;;;;;;5070206;28;20117;-30
2024/01/29 03:48:44;;;;;;;11.40;1.88;;;;;;;;;;5070490;28;20470;-32
2024/01/29 03:51:11;;;;;;;10.07;1.85;;;;;;;;;;5071125;28;20027;-32
2024/01/29 03:53:38;;;;;;;8.93;2.22;;;;;;;;;;5068477;28;20040;-31
2024/01/29 03:56:06;;;;;;;7.22;1.98;;;;;;;;;;5067938;28;20040;-31
2024/01/29 03:58:32;;;;;;;18.20;2.28;;;;;;;;;;5070493;28;20490;-31
2024/01/29 04:00:59;;;;;;;14.50;2.13;;;;;;;;;;5070949;28;20027;-31
2024/01/29 04:03:26;;;;;;;9.93;1.80;;;;;;;;;;5070905;28;20041;-30
2024/01/29 04:05:53;;;;;;;10.98;1.83;;;;;;;;;;5067207;28;20035;-31
2024/01/29 04:08:21;;;;;;;10.23;1.83;;;;;;;;;;5069518;28;20021;-30
2024/01/29 04:10:48;;;;;;;9.93;1.60;;;;;;;;;;5070702;28;20502;-31
2024/01/29 04:13:15;;;;;;;10.10;1.42;;;;;;;;;;5074249;28;20037;-30
2024/01/29 04:15:42;;;;;;;9.95;1.50;;;;;;;;;;5074637;28;20490;-30
2024/01/29 04:18:09;;;;;;;8.52;1.42;;;;;;;;;;5070270;28;20076;-30
2024/01/29 04:20:36;;;;;;;11.32;1.60;;;;;;;;;;5073898;28;20109;-30
2024/01/29 04:23:03;;;;;;;20.33;2.60;;;;;;;;;;5074327;28;20027;-30
2024/01/29 04:25:30;;;;;;;20.48;1.85;;;;;;;;;;5074399;28;20028;-29
2024/01/29 04:27:57;;;;;;;22.35;1.85;;;;;;;;;;5074390;28;20032;-29
2024/01/29 04:30:24;;;;;;;17.48;2.10;;;;;;;;;;5069792;28;20803;-30
2024/01/29 04:32:51;;;;;;;19.65;2.17;;;;;;;;;;5074177;28;20033;-30
2024/01/29 04:35:18;;;;;;;13.68;2.00;;;;;;;;;;5074053;28;20031;-29
2024/01/29 04:37:45;;;;;;;14.00;2.00;;;;;;;;;;5074062;28;20024;-29
2024/01/29 04:40:12;;;;;;;19.63;2.20;;;;;;;;;;5072803;28;20028;-29
2024/01/29 04:42:39;;;;;;;9.98;1.70;;;;;;;;;;5069504;28;20055;-29
2024/01/29 04:45:07;;;;;;;12.23;1.50;;;;;;;;;;5057117;28;20512;-29
2024/01/29 04:47:34;;;;;;;10.45;1.75;;;;;;;;;;5053936;28;20037;-29
2024/01/29 04:50:01;;;;;;;9.98;1.50;;;;;;;;;;5053774;28;20029;-30
2024/01/29 04:52:28;;;;;;;10.90;1.40;;;;;;;;;;5053663;28;20024;-30
2024/01/29 04:54:55;;;;;;;5.85;1.48;;;;;;;;;;5049948;28;20118;-29
2024/01/29 04:57:22;;;;;;;4.65;1.50;;;;;;;;;;5062187;28;20032;-29
2024/01/29 04:59:49;;;;;;;20.15;1.88;;;;;;;;;;5073675;28;20032;-29
2024/01/29 05:02:16;;;;;;;6.18;1.48;;;;;;;;;;5073850;28;20494;-29
2024/01/29 05:04:44;;;;;;;10.82;1.52;;;;;;;;;;5070894;28;20076;-29
2024/01/29 05:07:10;;;;;;;8.25;1.45;;;;;;;;;;5072061;28;20028;-29
2024/01/29 05:09:37;;;;;;;9.15;1.42;;;;;;;;;;5073649;28;20025;-29
2024/01/29 05:12:05;;;;;;;8.93;1.40;;;;;;;;;;5073821;28;20043;-29
2024/01/29 05:14:32;;;;;;;6.82;1.10;;;;;;;;;;5073634;28;20043;-29
2024/01/29 05:16:59;;;;;;;11.23;1.42;;;;;;;;;;5069426;28;20067;-29
2024/01/29 05:19:26;;;;;;;5.53;1.35;;;;;;;;;;5072853;28;20124;-29
2024/01/29 05:21:53;;;;;;;11.35;1.48;;;;;;;;;;5073589;28;20098;-29
2024/01/29 05:24:20;;;;;;;5.95;1.30;;;;;;;;;;5072131;28;20031;-29
2024/01/29 05:26:46;;;;;;;8.27;1.30;;;;;;;;;;5073251;28;20103;-29
2024/01/29 05:29:13;;;;;;;9.02;1.52;;;;;;;;;;5068720;28;20071;-29
2024/01/29 05:31:40;;;;;;;5.50;1.40;;;;;;;;;;5073370;28;20031;-29
2024/01/29 05:34:07;;;;;;;7.60;1.38;;;;;;;;;;5073257;28;20154;-29
2024/01/29 05:36:34;;;;;;;8.63;1.80;;;;;;;;;;5073340;28;20021;-29
2024/01/29 05:39:01;;;;;;;7.40;1.50;;;;;;;;;;5073005;28;20107;-29
2024/01/29 05:41:28;;;;;;;7.72;1.88;;;;;;;;;;5068437;28;20028;-29
2024/01/29 05:43:55;;;;;;;7.03;1.33;;;;;;;;;;5072992;28;20495;-29
2024/01/29 05:46:22;;;;;;;4.63;1.15;;;;;;;;;;5072724;28;20046;-29
2024/01/29 05:48:49;;;;;;;3.72;1.30;;;;;;;;;;5072778;28;20064;-29
2024/01/29 05:51:16;;;;;;;6.03;1.50;;;;;;;;;;5070817;28;20119;-30
2024/01/29 05:53:43;;;;;;;10.82;1.50;;;;;;;;;;5069175;28;20024;-29
2024/01/29 05:56:10;;;;;;;6.80;1.45;;;;;;;;;;5072810;28;20111;-29
2024/01/29 05:58:37;;;;;;;6.45;1.55;;;;;;;;;;5072578;28;20024;-29
2024/01/29 06:01:04;;;;;;;11.80;1.60;;;;;;;;;;5070475;28;20040;-29
2024/01/29 06:03:31;;;;;;;11.55;1.75;;;;;;;;;;5069525;28;20491;-29
2024/01/29 06:05:58;;;;;;;11.65;1.92;;;;;;;;;;5069987;28;20035;-29
2024/01/29 06:08:25;;;;;;;7.30;1.45;;;;;;;;;;5072391;28;20081;-29
2024/01/29 06:10:55;;;;;;;11.20;1.70;;;;;;;;;;5072488;28;20025;-29
2024/01/29 06:13:23;;;;;;;13.65;1.60;;;;;;;;;;5072381;28;20032;-29
2024/01/29 06:15:51;;;;;;;7.68;1.27;;;;;;;;;;5069704;28;20149;-29
2024/01/29 06:18:18;;;;;;;5.97;1.50;;;;;;;;;;5070899;28;20071;-29
2024/01/29 06:20:44;;;;;;;7.97;1.67;;;;;;;;;;5072271;28;20027;-29
2024/01/29 06:23:12;;;;;;;7.03;1.40;;;;;;;;;;5072058;28;20032;-29
2024/01/29 06:25:39;;;;;;;7.50;1.80;;;;;;;;;;5071776;28;20044;-28
2024/01/29 06:28:07;;;;;;;6.50;1.50;;;;;;;;;;5068121;28;20513;-29
2024/01/29 06:30:34;;;;;;;9.75;1.50;;;;;;;;;;5071599;28;20048;-28
2024/01/29 06:33:01;;;;;;;7.40;1.63;;;;;;;;;;5071928;28;20036;-28
2024/01/29 06:35:28;;;;;;;8.88;1.58;;;;;;;;;;5071673;28;20021;-28
2024/01/29 06:37:55;;;;;;;6.45;1.40;;;;;;;;;;5071811;28;20158;-28
2024/01/29 06:40:27;;;;;;;7.80;1.00;;;;;;;;;;5067408;28;20099;-28
2024/01/29 06:42:55;;;;;;;8.15;1.30;;;;;;;;;;5071871;28;20461;-28
2024/01/29 06:45:22;;;;;;;5.70;1.48;;;;;;;;;;5071648;28;20058;-28
2024/01/29 06:47:49;;;;;;;8.70;1.33;;;;;;;;;;5071800;28;20025;-28
2024/01/29 06:50:16;;;;;;;5.57;1.50;;;;;;;;;;5071061;28;20131;-29
2024/01/29 06:52:43;;;;;;;8.95;1.20;;;;;;;;;;5067918;28;20474;-28
2024/01/29 06:55:10;;;;;;;6.78;1.13;;;;;;;;;;5071677;28;20032;-28
2024/01/29 06:57:37;;;;;;;5.85;1.25;;;;;;;;;;5071880;28;20032;-28
2024/01/29 07:00:05;;;;;;;6.47;1.00;;;;;;;;;;5071694;28;20386;-28
2024/01/29 07:02:33;;;;;;;7.50;1.42;;;;;;;;;;5069749;28;20547;-28
2024/01/29 07:05:00;;;;;;;5.78;1.02;;;;;;;;;;5068985;28;20478;-29
2024/01/29 07:07:27;;;;;;;4.43;0.95;;;;;;;;;;5071626;28;20108;-29
2024/01/29 07:09:55;;;;;;;8.85;1.27;;;;;;;;;;5071555;28;20028;-29
2024/01/29 07:12:22;;;;;;;8.23;1.48;;;;;;;;;;5070993;28;20040;-29
2024/01/29 07:14:52;;;;;;;6.47;1.38;;;;;;;;;;5068731;28;20031;-29
2024/01/29 07:17:19;;;;;;;9.27;1.45;;;;;;;;;;5070163;28;20097;-29
2024/01/29 07:19:48;;;;;;;4.05;1.20;;;;;;;;;;5071368;28;20432;-29
2024/01/29 07:22:19;;;;;;;7.53;1.50;;;;;;;;;;5071355;28;20040;-29
2024/01/29 07:24:49;;;;;;;9.93;1.75;;;;;;;;;;5053974;28;20447;-29
2024/01/29 07:27:19;;;;;;;8.70;1.40;;;;;;;;;;5047707;28;20025;-29
2024/01/29 07:29:46;;;;;;;7.22;2.38;;;;;;;;;;5050828;28;20442;-29
2024/01/29 07:32:13;;;;;;;12.23;2.60;;;;;;;;;;5051470;28;20036;-29
2024/01/29 07:34:40;;;;;;;10.27;2.70;;;;;;;;;;5051429;28;20113;-29
2024/01/29 07:37:07;;;;;;;10.13;2.85;;;;;;;;;;5051250;28;20032;-29
2024/01/29 07:39:34;;;;;;;11.93;2.50;;;;;;;;;;5046632;28;20060;-30
2024/01/29 07:42:01;;;;;;;11.15;2.40;;;;;;;;;;5051345;28;20582;-29
2024/01/29 07:44:29;;;;;;;8.73;1.85;;;;;;;;;;5051080;28;20069;-29
2024/01/29 07:46:56;;;;;;;7.18;1.38;;;;;;;;;;5052468;28;20033;-29
2024/01/29 07:49:23;;;;;;;8.48;1.40;;;;;;;;;;5055318;28;20025;-29
2024/01/29 07:51:50;;;;;;;7.10;1.50;;;;;;;;;;5050776;28;20021;-29
2024/01/29 07:54:17;;;;;;;6.20;1.27;;;;;;;;;;5055347;28;20390;-29
2024/01/29 07:56:44;;;;;;;8.52;1.65;;;;;;;;;;5055188;28;20025;-29
2024/01/29 07:59:11;;;;;;;6.25;1.05;;;;;;;;;;5054908;28;20124;-29
2024/01/29 08:01:39;;;;;;;8.57;1.33;;;;;;;;;;5052565;28;20021;-29
2024/01/29 08:04:06;;;;;;;6.07;1.20;;;;;;;;;;5051877;28;20055;-29
2024/01/29 08:06:33;;;;;;;11.02;1.40;;;;;;;;;;5054814;28;20171;-29
2024/01/29 08:09:00;;;;;;;11.18;1.50;;;;;;;;;;5054791;28;20072;-29
2024/01/29 08:11:27;;;;;;;11.15;1.75;;;;;;;;;;5054936;28;20032;-29
2024/01/29 08:13:54;;;;;;;7.43;1.70;;;;;;;;;;5052678;28;20029;-29
2024/01/29 08:16:21;;;;;;;6.45;1.45;;;;;;;;;;5052400;28;20110;-29
2024/01/29 08:18:47;;;;;;;7.00;1.40;;;;;;;;;;5054403;28;20032;-29
2024/01/29 08:21:14;;;;;;;11.00;1.50;;;;;;;;;;5054787;28;20147;-29
2024/01/29 08:23:41;;;;;;;6.72;1.67;;;;;;;;;;5054616;28;20017;-29
2024/01/29 08:26:08;;;;;;;12.60;1.50;;;;;;;;;;5051816;28;20044;-29
2024/01/29 08:28:35;;;;;;;8.40;1.55;;;;;;;;;;5052755;28;20025;-29
2024/01/29 08:31:02;;;;;;;17.13;2.05;;;;;;;;;;5054419;28;20033;-28
2024/01/29 08:33:30;;;;;;;6.88;1.40;;;;;;;;;;5054406;28;20044;-28
2024/01/29 08:35:57;;;;;;;8.98;1.40;;;;;;;;;;5054353;28;20029;-29
2024/01/29 08:38:24;;;;;;;9.73;1.63;;;;;;;;;;5050530;28;20538;-29
2024/01/29 08:40:51;;;;;;;5.38;1.42;;;;;;;;;;5053531;28;20040;-28
2024/01/29 08:43:19;;;;;;;12.20;1.58;;;;;;;;;;5054344;28;20430;-28
2024/01/29 08:45:46;;;;;;;7.70;1.40;;;;;;;;;;5053931;28;20068;-29
2024/01/29 08:48:13;;;;;;;6.10;1.40;;;;;;;;;;5054050;28;20437;-29
2024/01/29 08:50:40;;;;;;;10.70;2.08;;;;;;;;;;5049667;28;20037;-29
2024/01/29 08:53:07;;;;;;;5.30;1.45;;;;;;;;;;5054065;28;20045;-29
2024/01/29 08:55:34;;;;;;;8.98;1.45;;;;;;;;;;5054043;28;20044;-28
2024/01/29 08:58:01;;;;;;;6.13;1.55;;;;;;;;;;5053555;28;20519;-29
2024/01/29 09:00:28;;;;;;;11.25;1.63;;;;;;;;;;5053971;28;20021;-28
2024/01/29 09:02:55;;;;;;;9.25;1.70;;;;;;;;;;5049380;28;20108;-28
2024/01/29 09:05:22;;;;;;;7.47;1.85;;;;;;;;;;5053825;28;20128;-28
2024/01/29 09:07:48;;;;;;;12.75;1.70;;;;;;;;;;5053735;28;20059;-28
2024/01/29 09:10:15;;;;;;;8.20;2.08;;;;;;;;;;5053748;28;20028;-28
2024/01/29 09:12:43;;;;;;;9.60;2.05;;;;;;;;;;5053048;28;20025;-29
2024/01/29 09:15:10;;;;;;;7.50;2.08;;;;;;;;;;5049751;28;20041;-28
2024/01/29 09:17:38;;;;;;;10.25;2.10;;;;;;;;;;5053606;28;20032;-28
2024/01/29 09:20:05;;;;;;;11.43;2.03;;;;;;;;;;5053455;28;20090;-28
2024/01/29 09:22:32;;;;;;;15.68;2.45;;;;;;;;;;5053464;28;20494;-28
2024/01/29 09:24:59;;;;;;;13.93;2.72;;;;;;;;;;5051059;28;20068;-29
2024/01/29 09:27:26;;;;;;;15.35;2.88;;;;;;;;;;5051367;28;20029;-29
2024/01/29 09:29:53;;;;;;;24.48;3.50;;;;;;;;;;5053387;28;20113;-28
2024/01/29 09:32:20;;;;;;;15.15;3.13;;;;;;;;;;5053457;28;20491;-28
2024/01/29 09:34:47;;;;;;;19.65;4.05;;;;;;;;;;5053290;28;20068;-29
2024/01/29 09:37:15;;;;;;;22.35;3.63;;;;;;;;;;5049934;28;20028;-29
2024/01/29 09:39:42;;;;;;;22.20;3.45;;;;;;;;;;5051800;28;20037;-28
2024/01/29 09:42:10;;;;;;;18.83;4.45;;;;;;;;;;5053211;28;20117;-28
2024/01/29 09:44:39;;;;;;;21.17;4.10;;;;;;;;;;5052990;28;20057;-28
2024/01/29 09:47:07;;;;;;;21.45;3.83;;;;;;;;;;5052930;28;20025;-28
2024/01/29 09:49:38;;;;;;;23.27;3.95;;;;;;;;;;5048707;28;20048;-29
2024/01/29 09:52:05;;;;;;;23.08;3.70;;;;;;;;;;5052801;28;20028;-29
2024/01/29 09:54:34;;;;;;;19.65;3.33;;;;;;;;;;5052941;28;20544;-28
2024/01/29 09:57:01;;;;;;;24.33;4.00;;;;;;;;;;5052879;28;20033;-28
2024/01/29 09:59:28;;;;;;;19.45;3.45;;;;;;;;;;5052708;28;20070;-28
2024/01/29 10:01:55;;;;;;;18.30;2.90;;;;;;;;;;5048408;28;20389;-29
2024/01/29 10:04:22;;;;;;;16.75;2.83;;;;;;;;;;5052647;28;20025;-28
2024/01/29 10:06:49;;;;;;;15.80;2.15;;;;;;;;;;5052618;28;20030;-29
2024/01/29 10:09:16;;;;;;;12.68;1.85;;;;;;;;;;5051841;28;20032;-28
2024/01/29 10:11:43;;;;;;;8.73;1.77;;;;;;;;;;5052016;28;20052;-29
2024/01/29 10:14:10;;;;;;;13.35;2.22;;;;;;;;;;5047459;28;20544;-28
2024/01/29 10:16:37;;;;;;;10.32;1.90;;;;;;;;;;5051202;28;20475;-28
2024/01/29 10:19:05;;;;;;;16.27;1.75;;;;;;;;;;5052094;28;20037;-28
2024/01/29 10:21:38;;;;;;;10.65;2.25;;;;;;;;;;5052383;28;20063;-28
2024/01/29 10:24:05;;;;;;;11.90;2.25;;;;;;;;;;5050589;28;20055;-29
2024/01/29 10:26:32;;;;;;;12.02;1.77;;;;;;;;;;5049807;28;20475;-28
2024/01/29 10:29:01;;;;;;;10.23;1.92;;;;;;;;;;5051983;28;20123;-28
2024/01/29 10:31:28;;;;;;;9.82;2.08;;;;;;;;;;5052209;28;20078;-28
2024/01/29 10:33:55;;;;;;;15.25;2.10;;;;;;;;;;5052237;28;20112;-28
2024/01/29 10:36:22;;;;;;;12.15;1.83;;;;;;;;;;5049215;28;20166;-29
2024/01/29 10:38:49;;;;;;;9.27;2.10;;;;;;;;;;5050257;28;20029;-29
2024/01/29 10:41:17;;;;;;;16.50;2.58;;;;;;;;;;5052107;28;20491;-29
2024/01/29 10:43:51;;;;;;;19.30;2.88;;;;;;;;;;5051895;28;20445;-28
2024/01/29 10:46:22;;;;;;;16.73;2.50;;;;;;;;;;5051653;28;20048;-28
2024/01/29 10:48:50;;;;;;;23.15;3.38;;;;;;;;;;5047826;28;20029;-29
2024/01/29 10:51:17;;;;;;;27.50;3.47;;;;;;;;;;5050762;28;20033;-29
2024/01/29 10:53:45;;;;;;;31.98;3.70;;;;;;;;;;5051828;28;20021;-28
2024/01/29 10:56:13;;;;;;;40.75;4.18;;;;;;;;;;5051834;28;20592;-28
2024/01/29 10:58:40;;;;;;;38.10;3.75;;;;;;;;;;5051592;28;20074;-28
2024/01/29 11:01:07;;;;;;;32.00;4.30;;;;;;;;;;5047224;28;20056;-29
2024/01/29 11:03:37;;;;;;;24.33;3.53;;;;;;;;;;5051796;28;20022;-29
2024/01/29 11:06:25;;;;;;;31.20;4.07;;;;;;;;;;5051608;28;20029;-28
2024/01/29 11:09:00;;;;;;;23.55;3.80;;;;;;;;;;5051443;28;20031;-29
2024/01/29 11:11:27;;;;;;;21.13;3.33;;;;;;;;;;5050852;28;20497;-29
2024/01/29 11:13:54;;;;;;;27.05;3.08;;;;;;;;;;5048026;28;20499;-28
2024/01/29 11:16:24;;;;;;;44.17;3.78;;;;;;;;;;5051487;28;20052;-28
2024/01/29 11:18:52;;;;;;;29.42;3.70;;;;;;;;;;5051242;28;20033;-28
2024/01/29 11:21:24;;;;;;;27.40;3.33;;;;;;;;;;5050075;28;20399;-28
2024/01/29 11:23:53;;;;;;;20.55;3.47;;;;;;;;;;5049808;28;20060;-29
2024/01/29 11:26:21;;;;;;;24.67;3.25;;;;;;;;;;5048845;28;20067;-28
2024/01/29 11:28:58;;;;;;;24.90;2.88;;;;;;;;;;5051047;28;20040;-29
2024/01/29 11:31:25;;;;;;;20.15;2.97;;;;;;;;;;5051432;28;20074;-28
2024/01/29 11:33:52;;;;;;;29.30;3.20;;;;;;;;;;5051483;28;20094;-28
2024/01/29 11:36:19;;;;;;;31.23;3.03;;;;;;;;;;5048086;28;20045;-29
2024/01/29 11:38:52;;;;;;;18.63;3.22;;;;;;;;;;5050050;28;20052;-29
2024/01/29 11:41:19;;;;;;;18.30;2.58;;;;;;;;;;5051329;28;20040;-28
2024/01/29 11:43:47;;;;;;;21.83;3.05;;;;;;;;;;5051298;28;20541;-29
2024/01/29 11:46:15;;;;;;;34.55;3.65;;;;;;;;;;5051004;28;20041;-28
2024/01/29 11:48:42;;;;;;;32.20;4.25;;;;;;;;;;5046577;28;20659;-29
2024/01/29 11:51:09;;;;;;;49.03;5.65;;;;;;;;;;5051280;28;20437;-28
2024/01/29 11:53:36;;;;;;;38.70;4.43;;;;;;;;;;5051277;28;20059;-28
2024/01/29 11:56:03;;;;;;;32.03;4.57;;;;;;;;;;5051263;28;20060;-28
2024/01/29 11:58:30;;;;;;;31.15;3.83;;;;;;;;;;5059811;28;20490;-29
2024/01/29 12:00:57;;;;;;;30.88;3.80;;;;;;;;;;5066576;28;20028;-28
2024/01/29 12:03:34;;;;;;;23.55;3.28;;;;;;;;;;5071234;28;20043;-29
2024/01/29 12:06:02;;;;;;;29.95;3.80;;;;;;;;;;5065421;28;20045;-28
2024/01/29 12:08:30;;;;;;;32.88;4.13;;;;;;;;;;5056905;28;20484;-29
2024/01/29 12:11:03;;;;;;;41.67;4.47;;;;;;;;;;5054091;28;20370;-30
2024/01/29 12:13:31;;;;;;;38.22;3.85;;;;;;;;;;5065303;28;20111;-30
2024/01/29 12:16:00;;;;;;;29.67;3.55;;;;;;;;;;5067871;28;20025;-29
2024/01/29 12:18:29;;;;;;;29.88;3.90;;;;;;;;;;5070756;28;20025;-29
2024/01/29 12:20:56;;;;;;;30.30;3.63;;;;;;;;;;5070852;28;20036;-29
2024/01/29 12:23:23;;;;;;;26.25;3.25;;;;;;;;;;5067199;28;20383;-30
2024/01/29 12:25:54;;;;;;;33.95;3.58;;;;;;;;;;5066221;28;20380;-30
2024/01/29 12:28:21;;;;;;;33.03;3.03;;;;;;;;;;5059039;28;20031;-29
2024/01/29 12:30:55;;;;;;;25.88;3.35;;;;;;;;;;5050515;28;20036;-30
2024/01/29 12:33:29;;;;;;;28.73;3.17;;;;;;;;;;5052543;28;20497;-30
2024/01/29 12:35:57;;;;;;;27.08;2.90;;;;;;;;;;5049958;28;20025;-30
2024/01/29 12:38:24;;;;;;;23.80;2.60;;;;;;;;;;5054176;28;20517;-30
2024/01/29 12:40:57;;;;;;;22.92;2.88;;;;;;;;;;5054374;28;20033;-30
2024/01/29 12:43:28;;;;;;;20.45;2.42;;;;;;;;;;5054376;28;20060;-29
2024/01/29 12:46:11;;;;;;;18.85;2.60;;;;;;;;;;5053590;28;20051;-30
2024/01/29 12:48:38;;;;;;;20.80;2.88;;;;;;;;;;5050560;28;20037;-30
2024/01/29 12:51:06;;;;;;;16.40;2.70;;;;;;;;;;5054155;28;20025;-30
2024/01/29 12:53:33;;;;;;;19.48;2.75;;;;;;;;;;5054038;28;20033;-30
2024/01/29 12:56:00;;;;;;;20.73;2.38;;;;;;;;;;5054062;28;20041;-30
2024/01/29 12:58:27;;;;;;;17.52;2.55;;;;;;;;;;5051684;28;20017;-30
2024/01/29 13:00:54;;;;;;;17.25;2.42;;;;;;;;;;5052027;28;20540;-30
2024/01/29 13:03:21;;;;;;;17.45;3.05;;;;;;;;;;5053959;28;20044;-30
2024/01/29 13:05:48;;;;;;;17.58;2.55;;;;;;;;;;5053893;28;20040;-30
2024/01/29 13:08:15;;;;;;;17.65;2.42;;;;;;;;;;5053655;28;20099;-29
2024/01/29 13:10:42;;;;;;;18.38;3.05;;;;;;;;;;5050983;28;20036;-30
2024/01/29 13:13:11;;;;;;;13.05;2.60;;;;;;;;;;5052222;28;20040;-29
2024/01/29 13:15:38;;;;;;;15.23;2.33;;;;;;;;;;5053710;28;20107;-29
2024/01/29 13:18:05;;;;;;;13.25;2.67;;;;;;;;;;5053662;28;20102;-29
2024/01/29 13:20:36;;;;;;;15.23;2.45;;;;;;;;;;5053553;28;20025;-29
2024/01/29 13:23:04;;;;;;;13.32;2.47;;;;;;;;;;5049399;28;20118;-30
2024/01/29 13:25:31;;;;;;;17.55;2.55;;;;;;;;;;5052951;28;20052;-30
2024/01/29 13:27:58;;;;;;;12.32;2.50;;;;;;;;;;5053346;28;20111;-30
2024/01/29 13:30:25;;;;;;;19.77;2.35;;;;;;;;;;5053411;28;20028;-29
2024/01/29 13:32:52;;;;;;;15.63;2.25;;;;;;;;;;5053145;28;20388;-30
2024/01/29 13:35:21;;;;;;;12.88;2.60;;;;;;;;;;5047611;28;20762;-29
2024/01/29 13:37:50;;;;;;;15.15;2.80;;;;;;;;;;5053103;28;20037;-29
2024/01/29 13:40:18;;;;;;;21.58;2.10;;;;;;;;;;5053018;28;20040;-29
2024/01/29 13:42:45;;;;;;;12.90;2.13;;;;;;;;;;5053078;28;20039;-30
2024/01/29 13:45:12;;;;;;;8.98;1.83;;;;;;;;;;5051537;28;20087;-30
2024/01/29 13:47:40;;;;;;;7.88;1.63;;;;;;;;;;5047357;28;20036;-29
2024/01/29 13:50:07;;;;;;;6.60;1.73;;;;;;;;;;5053193;28;20124;-30
2024/01/29 13:52:34;;;;;;;8.23;1.60;;;;;;;;;;5052947;28;20078;-30
2024/01/29 13:55:01;;;;;;;10.27;1.80;;;;;;;;;;5052738;28;20028;-30
2024/01/29 13:57:28;;;;;;;9.45;1.55;;;;;;;;;;5052087;28;20025;-30
2024/01/29 13:59:58;;;;;;;15.15;1.70;;;;;;;;;;5049071;28;20096;-30
2024/01/29 14:02:25;;;;;;;14.80;2.20;;;;;;;;;;5052684;28;20051;-30
2024/01/29 14:04:52;;;;;;;13.95;1.90;;;;;;;;;;5052418;28;20037;-30
2024/01/29 14:07:19;;;;;;;21.65;2.30;;;;;;;;;;5051123;28;20033;-30
2024/01/29 14:09:46;;;;;;;9.88;1.95;;;;;;;;;;5050933;28;20078;-30
2024/01/29 14:12:16;;;;;;;14.90;2.00;;;;;;;;;;5065020;28;20043;-29
2024/01/29 14:14:42;;;;;;;13.00;1.83;;;;;;;;;;5071498;28;20070;-30
2024/01/29 14:17:09;;;;;;;20.60;2.05;;;;;;;;;;5072384;28;20115;-29
2024/01/29 14:19:36;;;;;;;13.18;2.00;;;;;;;;;;5067912;28;20031;-30
2024/01/29 14:22:04;;;;;;;14.50;1.70;;;;;;;;;;5058802;28;20071;-30
2024/01/29 14:24:33;;;;;;;16.42;1.80;;;;;;;;;;5058831;28;20047;-30
2024/01/29 14:27:00;;;;;;;6.75;1.73;;;;;;;;;;5062150;28;20020;-31
2024/01/29 14:29:27;;;;;;;16.13;1.83;;;;;;;;;;5061880;28;20029;-30
2024/01/29 14:31:57;;;;;;;14.63;1.70;;;;;;;;;;5068614;28;20027;-32
2024/01/29 14:34:24;;;;;;;9.50;1.42;;;;;;;;;;5058768;28;20072;-29
2024/01/29 14:36:51;;;;;;;10.60;1.52;;;;;;;;;;5052626;28;20025;-28